GCGM

Details ICAO GCGM (GMZ)
Name La Gomera
Region Canary Islands
Timezone Atlantic/Canary (UTC+1.0)
Plans Departing 43
Arriving 59
Stats Elevation 715 ft / 218 m (AMSL)
Location 28.029627° -17.214603°
Runways 1
Magnetic Variation 5.308° W
Sunrise 2018-05-23 06:16:49 UTC / 2018-05-23 07:16:49 Local
Sunset 2018-05-23 19:57:16 UTC / 2018-05-23 20:57:16 Local
Advertisement - Login to hide

Runways

ID Width Length Bearing (true) Bearing (mag) Surface Threshold Offset Overrun Length
09 98 ft / 30 m 4,914 ft / 1,498 m 81.17° 86.48° Asphalt 0 ft / 0 m 0 ft / 0 m
27 98 ft / 30 m 4,914 ft / 1,498 m 261.18° 266.49° Asphalt 0 ft / 0 m 0 ft / 0 m

Map

Weather


0- 5 10 15 20 25 30 35+ Temperature / ° C

Clouds and Precipitation
Forecast for 2018-05-23 12:00 UTC. Updated 2 hours ago

Ground ~20,000 ft ~40,000 ft Winds

METAR

GCGM 231330Z 12008KT 070V150 9999 SCT053 20/13 Q1019 RMK R09/VRB06KT ARP/15007KT 070V210

TAF

TAF GCGM 230800Z 2309/2409 17006KT 9999 SCT040 TX20/2314Z TN17/2405Z

Frequencies

Tower 118.40 MHz GCGM TWR
Approach 127.70 MHz GCGM APP
Warning: Do not use this data for real-world aviation or navigation. No guarantee of current accuracy is given.